createdAt,value
2019-01-11T00:02:25.380Z,22.30
2019-01-11T00:04:55.321Z,22.30
2019-01-11T00:07:25.442Z,22.30
2019-01-11T00:09:55.288Z,22.40
2019-01-11T00:12:25.108Z,22.30
2019-01-11T00:14:54.738Z,22.40
2019-01-11T00:17:24.350Z,22.40
2019-01-11T00:19:54.297Z,22.40
2019-01-11T00:22:24.090Z,22.40
2019-01-11T00:24:53.860Z,22.40
2019-01-11T00:27:23.763Z,22.40
2019-01-11T00:29:53.404Z,22.40
2019-01-11T00:32:23.009Z,22.40
2019-01-11T00:34:52.678Z,22.40
2019-01-11T00:37:22.107Z,22.40
2019-01-11T00:39:51.805Z,22.50
2019-01-11T00:42:21.436Z,22.50
2019-01-11T00:44:51.463Z,22.50
2019-01-11T00:47:22.854Z,22.50
2019-01-11T00:49:52.563Z,22.40
2019-01-11T00:52:22.374Z,22.50
2019-01-11T00:54:52.021Z,22.50
2019-01-11T00:57:21.919Z,22.40
2019-01-11T00:59:52.072Z,22.40
2019-01-11T01:02:22.422Z,22.40
2019-01-11T01:04:52.343Z,22.40
2019-01-11T01:07:22.156Z,22.50
2019-01-11T01:09:51.994Z,22.40
2019-01-11T01:12:22.517Z,22.40
2019-01-11T01:14:52.307Z,22.40
2019-01-11T01:17:21.993Z,22.40
2019-01-11T01:19:51.846Z,22.40
2019-01-11T01:22:21.754Z,22.40
2019-01-11T01:24:51.605Z,22.40
2019-01-11T01:27:21.441Z,22.40
2019-01-11T01:29:51.162Z,22.40
2019-01-11T01:32:20.782Z,22.40
2019-01-11T01:34:50.613Z,22.40
2019-01-11T01:37:20.635Z,22.40
2019-01-11T01:39:50.682Z,22.40
2019-01-11T01:42:20.587Z,22.40
2019-01-11T01:44:50.337Z,22.40
2019-01-11T01:47:20.167Z,22.40
2019-01-11T01:49:49.888Z,22.40
2019-01-11T01:52:19.927Z,22.40
2019-01-11T01:54:51.037Z,22.40
2019-01-11T01:57:20.809Z,22.40
2019-01-11T01:59:50.544Z,22.40
2019-01-11T02:02:20.361Z,22.40
2019-01-11T02:04:50.192Z,22.40
2019-01-11T02:07:19.933Z,22.40
2019-01-11T02:09:50.053Z,22.40
2019-01-11T02:12:19.885Z,22.40
2019-01-11T02:14:49.933Z,22.40
2019-01-11T02:17:19.542Z,22.40
2019-01-11T02:19:49.381Z,22.40
2019-01-11T02:22:19.400Z,22.40
2019-01-11T02:24:48.933Z,22.40
2019-01-11T02:27:18.560Z,22.40
2019-01-11T02:29:48.374Z,22.30
2019-01-11T02:32:18.117Z,22.30
2019-01-11T02:34:47.940Z,22.40
2019-01-11T02:37:17.671Z,22.30
2019-01-11T02:39:48.565Z,22.40
2019-01-11T02:42:18.358Z,22.30
2019-01-11T02:44:48.189Z,22.30
2019-01-11T02:47:18.008Z,22.30
2019-01-11T02:49:47.748Z,22.30
2019-01-11T02:52:17.560Z,22.30
2019-01-11T02:54:47.377Z,22.30
2019-01-11T02:57:17.313Z,22.30
2019-01-11T02:59:47.062Z,22.30
2019-01-11T03:02:16.888Z,22.30
2019-01-11T03:04:46.819Z,22.30
2019-01-11T03:07:16.743Z,22.30
2019-01-11T03:09:46.585Z,22.30
2019-01-11T03:12:17.492Z,22.30
2019-01-11T03:14:47.262Z,22.30
2019-01-11T03:17:16.875Z,22.30
2019-01-11T03:19:48.066Z,22.30
2019-01-11T03:22:17.972Z,22.30
2019-01-11T03:24:47.780Z,22.30
2019-01-11T03:27:17.524Z,22.30
2019-01-11T03:29:47.340Z,22.30
2019-01-11T03:32:17.182Z,22.30
2019-01-11T03:35:11.730Z,22.30
2019-01-11T03:37:41.596Z,22.30
2019-01-11T03:40:11.873Z,22.30
2019-01-11T03:42:41.685Z,22.30
2019-01-11T03:45:12.235Z,22.30
2019-01-11T03:47:42.046Z,22.30
2019-01-11T03:50:11.885Z,22.30
2019-01-11T03:52:41.509Z,22.30
2019-01-11T03:55:12.664Z,22.30
2019-01-11T03:57:43.929Z,22.30
2019-01-11T04:00:19.056Z,22.40
2019-01-11T04:02:48.605Z,22.40
2019-01-11T04:05:18.441Z,22.40
2019-01-11T04:07:49.818Z,22.40
2019-01-11T04:10:26.488Z,22.40
2019-01-11T04:12:56.298Z,22.40
2019-01-11T04:15:26.059Z,22.40
2019-01-11T04:18:13.571Z,22.40
2019-01-11T04:20:43.311Z,22.40
2019-01-11T04:23:13.124Z,22.50
2019-01-11T04:25:46.964Z,22.50
2019-01-11T04:28:16.894Z,22.50
2019-01-11T04:30:46.512Z,22.50
2019-01-11T04:33:16.244Z,22.40
2019-01-11T04:35:46.073Z,22.50
2019-01-11T04:38:15.779Z,22.40
2019-01-11T04:40:45.518Z,22.50
2019-01-11T04:43:15.458Z,22.40
2019-01-11T04:45:47.081Z,22.40
2019-01-11T04:48:16.854Z,22.30
2019-01-11T04:50:46.581Z,22.30
2019-01-11T04:53:16.302Z,22.20
2019-01-11T04:55:46.148Z,22.20
2019-01-11T04:58:15.957Z,22.20
2019-01-11T05:00:45.813Z,22.20
2019-01-11T05:03:15.737Z,22.20
2019-01-11T05:05:45.653Z,22.20
2019-01-11T05:08:15.302Z,22.20
2019-01-11T05:10:45.208Z,22.10
2019-01-11T05:13:39.861Z,22.00
2019-01-11T05:16:09.743Z,22.10
2019-01-11T05:18:39.677Z,22.10
2019-01-11T05:21:09.533Z,22.20
2019-01-11T05:23:39.118Z,22.20
2019-01-11T05:26:08.855Z,22.20
2019-01-11T05:28:38.774Z,22.30
2019-01-11T05:31:08.817Z,22.30
2019-01-11T05:33:38.445Z,22.30
2019-01-11T05:36:08.342Z,22.20
2019-01-11T05:38:38.030Z,22.30
2019-01-11T05:41:07.729Z,22.30
2019-01-11T05:43:37.454Z,22.30
2019-01-11T05:46:07.172Z,22.30
2019-01-11T05:48:36.999Z,22.30
2019-01-11T05:51:06.839Z,22.30
2019-01-11T05:53:38.354Z,22.30
2019-01-11T05:56:10.593Z,22.30
2019-01-11T05:59:01.928Z,22.30
2019-01-11T06:01:31.888Z,22.30
2019-01-11T06:04:03.232Z,22.30
2019-01-11T06:06:52.018Z,22.30
2019-01-11T06:09:21.794Z,22.30
2019-01-11T06:11:51.856Z,22.30
2019-01-11T06:14:21.761Z,22.30
2019-01-11T06:16:52.586Z,22.30
2019-01-11T06:19:22.454Z,22.30
2019-01-11T06:21:52.170Z,22.30
2019-01-11T06:24:22.108Z,22.30
2019-01-11T06:26:53.227Z,22.30
2019-01-11T06:29:23.003Z,22.30
2019-01-11T06:31:53.209Z,22.30
2019-01-11T06:34:22.844Z,22.30
2019-01-11T06:36:52.776Z,22.30
2019-01-11T06:39:22.504Z,22.30
2019-01-11T06:41:55.793Z,22.30
2019-01-11T06:44:25.433Z,22.40
2019-01-11T06:46:55.172Z,22.40
2019-01-11T06:49:24.577Z,22.30
2019-01-11T06:51:54.507Z,22.40
2019-01-11T06:54:24.339Z,22.30
2019-01-11T06:56:54.077Z,22.40
2019-01-11T06:59:23.684Z,22.40
2019-01-11T07:01:53.526Z,22.40
2019-01-11T07:04:23.269Z,22.40
2019-01-11T07:06:52.898Z,22.40
2019-01-11T07:09:22.629Z,22.50
2019-01-11T07:11:53.845Z,22.70
2019-01-11T07:14:23.611Z,22.80
2019-01-11T07:16:53.529Z,22.90
2019-01-11T07:19:24.167Z,23.00
2019-01-11T07:21:55.881Z,23.20
2019-01-11T07:24:26.682Z,23.30
2019-01-11T07:26:56.329Z,23.40
2019-01-11T07:29:26.152Z,23.40
2019-01-11T07:31:57.453Z,23.40
2019-01-11T07:34:27.247Z,23.50
2019-01-11T07:36:57.849Z,23.60
2019-01-11T07:39:31.224Z,23.70
2019-01-11T07:42:00.936Z,23.70
2019-01-11T07:44:30.567Z,23.60
2019-01-11T07:47:00.386Z,23.60
2019-01-11T07:49:30.321Z,23.60
2019-01-11T07:52:02.196Z,23.60
2019-01-11T07:54:33.878Z,23.70
2019-01-11T07:57:03.599Z,23.70
2019-01-11T07:59:33.438Z,23.70
2019-01-11T08:02:03.349Z,23.70
2019-01-11T08:04:32.988Z,23.60
2019-01-11T08:07:04.261Z,23.50
2019-01-11T08:09:33.672Z,23.40
2019-01-11T08:12:03.581Z,23.30
2019-01-11T08:14:34.996Z,23.30
2019-01-11T08:17:04.678Z,23.20
2019-01-11T08:19:34.325Z,23.10
2019-01-11T08:22:04.421Z,23.10
2019-01-11T08:24:34.079Z,23.10
2019-01-11T08:27:03.783Z,23.00
2019-01-11T08:29:33.737Z,23.00
2019-01-11T08:32:03.662Z,23.00
2019-01-11T08:34:33.305Z,23.00
2019-01-11T08:37:03.219Z,22.90
2019-01-11T08:39:35.013Z,22.90
2019-01-11T08:42:05.032Z,22.90
2019-01-11T08:44:34.861Z,22.90
2019-01-11T08:47:04.560Z,23.00
2019-01-11T08:49:34.338Z,23.10
2019-01-11T08:52:05.710Z,23.20
2019-01-11T08:54:35.406Z,23.20
2019-01-11T08:57:05.526Z,23.10
2019-01-11T08:59:35.174Z,23.10
2019-01-11T09:02:04.677Z,23.00
2019-01-11T09:04:34.511Z,23.10
2019-01-11T09:07:04.344Z,23.10
2019-01-11T09:09:34.263Z,23.10
2019-01-11T09:12:04.321Z,23.10
2019-01-11T09:14:53.238Z,23.10
2019-01-11T09:17:24.801Z,23.10
2019-01-11T09:19:54.595Z,23.10
2019-01-11T09:22:24.497Z,23.10
2019-01-11T09:24:54.257Z,23.10
2019-01-11T09:27:23.981Z,23.10
2019-01-11T09:29:53.766Z,23.20
2019-01-11T09:32:23.637Z,23.20
2019-01-11T09:34:53.449Z,23.20
2019-01-11T09:37:23.283Z,23.20
2019-01-11T09:39:52.891Z,23.20
2019-01-11T09:42:22.849Z,23.20
2019-01-11T09:44:52.576Z,23.20
2019-01-11T09:47:22.302Z,23.10
2019-01-11T09:49:52.110Z,23.10
2019-01-11T09:52:22.062Z,23.10
2019-01-11T09:54:51.784Z,23.10
2019-01-11T09:57:21.488Z,23.00
2019-01-11T09:59:51.227Z,23.00
2019-01-11T10:02:35.471Z,23.00
2019-01-11T10:05:06.242Z,23.00
2019-01-11T10:07:35.958Z,22.90
2019-01-11T10:10:07.714Z,22.90
2019-01-11T10:12:37.273Z,22.90
2019-01-11T10:15:09.129Z,22.90
2019-01-11T10:17:40.005Z,22.90
2019-01-11T10:20:10.737Z,22.90
2019-01-11T10:22:40.682Z,22.90
2019-01-11T10:25:11.949Z,22.90
2019-01-11T10:27:41.871Z,22.90
2019-01-11T10:30:13.939Z,22.90
2019-01-11T10:32:43.489Z,22.90
2019-01-11T10:35:13.206Z,22.90
2019-01-11T10:37:44.712Z,22.80
2019-01-11T10:40:15.616Z,22.90
2019-01-11T10:42:45.462Z,22.80
2019-01-11T10:45:20.398Z,22.90
2019-01-11T10:47:52.174Z,22.80
2019-01-11T10:50:21.889Z,22.80
2019-01-11T10:52:51.621Z,22.80
2019-01-11T10:55:21.940Z,22.80
2019-01-11T10:57:51.686Z,22.80
2019-01-11T11:00:30.307Z,22.80
2019-01-11T11:03:00.155Z,22.80
2019-01-11T11:05:30.076Z,22.80
2019-01-11T11:07:59.806Z,22.80
2019-01-11T11:10:48.367Z,22.80
2019-01-11T11:13:17.893Z,22.80
2019-01-11T11:15:48.322Z,22.80
2019-01-11T11:18:18.277Z,22.80
2019-01-11T11:20:48.098Z,22.80
2019-01-11T11:23:18.014Z,22.80
2019-01-11T11:25:47.843Z,22.80
2019-01-11T11:28:17.574Z,22.80
2019-01-11T11:30:50.924Z,22.80
2019-01-11T11:33:21.166Z,22.80
2019-01-11T11:35:51.047Z,22.80
2019-01-11T11:38:20.908Z,22.80
2019-01-11T11:40:50.715Z,22.80
2019-01-11T11:43:20.555Z,22.80
2019-01-11T11:45:50.390Z,22.80
2019-01-11T11:48:20.017Z,22.80
2019-01-11T11:50:49.833Z,22.80
2019-01-11T11:53:19.664Z,22.80
2019-01-11T11:55:49.580Z,22.80
2019-01-11T11:58:19.341Z,22.90
2019-01-11T12:00:49.266Z,22.80
2019-01-11T12:03:20.659Z,22.90
2019-01-11T12:05:50.747Z,22.80
2019-01-11T12:08:20.687Z,22.90
2019-01-11T12:10:52.103Z,22.80
2019-01-11T12:13:21.979Z,22.80
2019-01-11T12:15:51.807Z,22.90
2019-01-11T12:18:21.535Z,22.80
2019-01-11T12:20:51.161Z,22.80
2019-01-11T12:23:20.995Z,22.80
2019-01-11T12:25:50.824Z,22.90
2019-01-11T12:28:20.777Z,22.90
2019-01-11T12:30:50.653Z,22.90
2019-01-11T12:33:20.321Z,22.90
2019-01-11T12:35:50.013Z,22.90
2019-01-11T12:38:19.668Z,22.90
2019-01-11T12:40:49.280Z,22.90
2019-01-11T12:43:19.011Z,22.80
2019-01-11T12:45:48.735Z,22.90
2019-01-11T12:48:18.374Z,22.90
2019-01-11T12:50:48.090Z,22.90
2019-01-11T12:53:18.036Z,22.90
2019-01-11T12:55:47.744Z,22.90
2019-01-11T12:58:17.476Z,22.80
2019-01-11T13:00:49.904Z,22.80
2019-01-11T13:03:19.486Z,22.80
2019-01-11T13:05:50.143Z,22.80
2019-01-11T13:08:22.954Z,22.80
2019-01-11T13:10:55.898Z,22.80
2019-01-11T13:13:26.565Z,22.80
2019-01-11T13:15:56.200Z,22.80
2019-01-11T13:18:25.929Z,22.80
2019-01-11T13:20:59.231Z,22.80
2019-01-11T13:23:31.423Z,22.80
2019-01-11T13:26:04.459Z,22.80
2019-01-11T13:28:35.455Z,22.80
2019-01-11T13:31:05.317Z,22.80
2019-01-11T13:33:36.408Z,22.80
2019-01-11T13:36:12.120Z,22.80
2019-01-11T13:38:41.984Z,22.80
2019-01-11T13:41:11.796Z,22.80
2019-01-11T13:43:41.440Z,22.80
2019-01-11T13:46:11.151Z,22.80
2019-01-11T13:48:40.877Z,22.80
2019-01-11T13:51:10.702Z,22.80
2019-01-11T13:53:40.547Z,22.80
2019-01-11T13:56:10.465Z,22.80
2019-01-11T13:58:40.287Z,22.80
2019-01-11T14:01:10.156Z,22.80
2019-01-11T14:03:39.965Z,22.80
2019-01-11T14:06:09.672Z,22.80
2019-01-11T14:08:39.325Z,22.80
2019-01-11T14:11:09.129Z,22.80
2019-01-11T14:13:39.883Z,22.80
2019-01-11T14:16:09.717Z,22.80
2019-01-11T14:18:39.660Z,22.80
2019-01-11T14:21:09.463Z,22.80
2019-01-11T14:23:39.202Z,22.80
2019-01-11T14:26:08.834Z,22.80
2019-01-11T14:28:38.454Z,22.80
2019-01-11T14:31:08.282Z,22.70
2019-01-11T14:33:38.115Z,22.70
2019-01-11T14:36:07.748Z,22.80
2019-01-11T14:38:37.461Z,22.80
2019-01-11T14:41:07.298Z,22.80
2019-01-11T14:43:37.319Z,22.80
2019-01-11T14:46:06.961Z,22.80
2019-01-11T14:48:38.080Z,22.70
2019-01-11T14:51:07.940Z,22.70
2019-01-11T14:53:37.653Z,22.80
2019-01-11T14:56:07.516Z,22.80
2019-01-11T14:58:37.326Z,22.70
2019-01-11T15:01:07.170Z,22.80
2019-01-11T15:03:37.680Z,22.70
2019-01-11T15:06:07.340Z,22.80
2019-01-11T15:08:37.155Z,22.70
2019-01-11T15:11:06.875Z,22.70
2019-01-11T15:13:36.825Z,22.70
2019-01-11T15:16:06.543Z,22.70
2019-01-11T15:18:36.469Z,22.70
2019-01-11T15:21:06.216Z,22.70
2019-01-11T15:23:36.047Z,22.70
2019-01-11T15:26:05.862Z,22.70
2019-01-11T15:28:35.480Z,22.70
2019-01-11T15:31:05.319Z,22.70
2019-01-11T15:33:35.249Z,22.70
2019-01-11T15:36:05.083Z,22.70
2019-01-11T15:38:34.582Z,22.70
2019-01-11T15:41:04.340Z,22.70
2019-01-11T15:43:34.252Z,22.70
2019-01-11T15:46:04.960Z,22.70
2019-01-11T15:48:51.005Z,22.70
2019-01-11T15:51:23.400Z,22.70
2019-01-11T15:53:53.424Z,22.70
2019-01-11T15:56:26.646Z,22.70
2019-01-11T15:58:56.465Z,22.70
2019-01-11T16:01:26.305Z,22.70
2019-01-11T16:03:56.129Z,22.70
2019-01-11T16:06:30.471Z,22.70
2019-01-11T16:09:56.981Z,22.70
2019-01-11T16:12:47.148Z,22.70
2019-01-11T16:15:54.175Z,22.60
2019-01-11T16:18:26.426Z,22.60
2019-01-11T16:20:56.202Z,22.60
2019-01-11T16:23:29.034Z,22.50
2019-01-11T16:25:58.803Z,22.50
2019-01-11T16:28:28.413Z,22.40
2019-01-11T16:30:58.383Z,22.40
2019-01-11T16:33:28.077Z,22.30
2019-01-11T16:35:57.896Z,22.30
2019-01-11T16:38:28.436Z,22.30
2019-01-11T16:40:58.164Z,22.30
2019-01-11T16:43:27.903Z,22.30
2019-01-11T16:45:57.735Z,22.40
2019-01-11T16:48:27.484Z,22.40
2019-01-11T16:50:57.393Z,22.50
2019-01-11T16:53:27.460Z,22.50
2019-01-11T16:55:57.948Z,22.60
2019-01-11T16:58:27.613Z,22.60
2019-01-11T17:00:59.479Z,22.60
2019-01-11T17:03:29.129Z,22.70
2019-01-11T17:05:58.838Z,22.70
2019-01-11T17:08:28.674Z,22.70
2019-01-11T17:10:58.438Z,22.70
2019-01-11T17:13:27.918Z,22.70
2019-01-11T17:15:58.547Z,22.70
2019-01-11T17:18:28.392Z,22.70
2019-01-11T17:20:58.436Z,22.60
2019-01-11T17:23:28.364Z,22.60
2019-01-11T17:25:58.197Z,22.60
2019-01-11T17:28:28.010Z,22.50
2019-01-11T17:30:57.631Z,22.50
2019-01-11T17:33:27.487Z,22.50
2019-01-11T17:35:57.283Z,22.40
2019-01-11T17:38:28.252Z,22.40
2019-01-11T17:40:58.169Z,22.50
2019-01-11T17:43:28.436Z,22.60
2019-01-11T17:45:58.369Z,22.70
2019-01-11T17:48:27.811Z,22.80
2019-01-11T17:50:57.492Z,22.90
2019-01-11T17:53:27.437Z,22.90
2019-01-11T17:55:57.165Z,22.90
2019-01-11T17:58:27.006Z,23.00
2019-01-11T18:00:56.912Z,23.00
2019-01-11T18:03:26.665Z,23.00
2019-01-11T18:05:56.365Z,23.10
2019-01-11T18:08:26.119Z,23.10
2019-01-11T18:10:55.815Z,23.10
2019-01-11T18:13:25.672Z,23.10
2019-01-11T18:15:55.596Z,23.10
2019-01-11T18:18:25.522Z,23.10
2019-01-11T18:20:55.440Z,23.20
2019-01-11T18:23:25.550Z,23.20
2019-01-11T18:25:55.350Z,23.20
2019-01-11T18:28:25.324Z,23.20
2019-01-11T18:30:55.543Z,23.30
2019-01-11T18:33:25.466Z,23.30
2019-01-11T18:35:55.333Z,23.20
2019-01-11T18:38:25.179Z,23.30
2019-01-11T18:40:54.917Z,23.20
2019-01-11T18:43:24.556Z,23.30
2019-01-11T18:45:54.476Z,23.30
2019-01-11T18:48:24.672Z,23.30
2019-01-11T18:50:56.669Z,23.30
2019-01-11T18:53:26.536Z,23.30
2019-01-11T18:55:57.421Z,23.30
2019-01-11T18:58:27.121Z,23.30
2019-01-11T19:00:57.083Z,23.30
2019-01-11T19:03:27.033Z,23.30
2019-01-11T19:05:59.014Z,23.30
2019-01-11T19:08:30.877Z,23.30
2019-01-11T19:11:00.641Z,23.30
2019-01-11T19:13:30.252Z,23.30
2019-01-11T19:16:00.092Z,23.30
2019-01-11T19:18:29.821Z,23.30
2019-01-11T19:21:09.097Z,23.30
2019-01-11T19:23:38.797Z,23.30
2019-01-11T19:26:08.723Z,23.30
2019-01-11T19:28:38.555Z,23.30
2019-01-11T19:31:08.585Z,23.20
2019-01-11T19:33:38.425Z,23.20
2019-01-11T19:36:08.231Z,23.20
2019-01-11T19:38:38.089Z,23.20
2019-01-11T19:41:07.792Z,23.20
2019-01-11T19:43:37.335Z,23.20
2019-01-11T19:46:07.259Z,23.10
2019-01-11T19:48:37.086Z,23.10
2019-01-11T19:51:06.897Z,23.10
2019-01-11T19:53:38.384Z,23.20
2019-01-11T19:56:07.792Z,23.10
2019-01-11T19:58:38.652Z,23.20
2019-01-11T20:01:08.307Z,23.10
2019-01-11T20:03:38.218Z,23.10
2019-01-11T20:06:08.139Z,23.10
2019-01-11T20:08:38.182Z,23.10
2019-01-11T20:11:08.039Z,23.10
2019-01-11T20:13:37.868Z,23.10
2019-01-11T20:16:07.680Z,23.00
2019-01-11T20:18:37.293Z,23.00
2019-01-11T20:21:07.220Z,23.00
2019-01-11T20:23:37.098Z,23.00
2019-01-11T20:26:06.798Z,23.00
2019-01-11T20:28:36.604Z,23.00
2019-01-11T20:31:08.634Z,23.00
2019-01-11T20:33:40.663Z,23.00
2019-01-11T20:36:10.609Z,23.00
2019-01-11T20:38:40.354Z,23.00
2019-01-11T20:41:09.770Z,23.00
2019-01-11T20:43:39.482Z,23.00
2019-01-11T20:46:09.295Z,23.00
2019-01-11T20:48:39.234Z,23.00
2019-01-11T20:51:08.965Z,23.10
2019-01-11T20:53:41.671Z,23.10
2019-01-11T20:56:10.273Z,23.00
2019-01-11T20:58:39.977Z,23.00
2019-01-11T21:01:10.321Z,23.00
2019-01-11T21:03:40.149Z,23.00
2019-01-11T21:06:10.097Z,23.10
2019-01-11T21:08:39.705Z,23.10
2019-01-11T21:11:09.560Z,23.10
2019-01-11T21:13:39.569Z,23.10
2019-01-11T21:16:10.666Z,23.00
2019-01-11T21:18:40.677Z,23.10
2019-01-11T21:21:10.496Z,23.10
2019-01-11T21:23:40.321Z,23.10
2019-01-11T21:26:11.741Z,23.00
2019-01-11T21:28:41.723Z,22.80
2019-01-11T21:31:11.591Z,22.70
2019-01-11T21:33:41.485Z,22.60
2019-01-11T21:36:11.446Z,22.60
2019-01-11T21:38:41.265Z,22.50
2019-01-11T21:41:11.077Z,22.50
2019-01-11T21:43:41.906Z,22.50
2019-01-11T21:46:11.645Z,22.40
2019-01-11T21:48:41.481Z,22.40
2019-01-11T21:51:11.304Z,22.40
2019-01-11T21:53:41.123Z,22.40
2019-01-11T21:56:10.850Z,22.30
2019-01-11T21:58:40.609Z,22.30
2019-01-11T22:01:10.328Z,22.30
2019-01-11T22:03:40.148Z,22.30
2019-01-11T22:06:09.894Z,22.30
2019-01-11T22:08:39.615Z,22.30
2019-01-11T22:11:09.448Z,22.30
2019-01-11T22:13:39.257Z,22.30
2019-01-11T22:16:09.095Z,22.30
2019-01-11T22:18:40.286Z,22.30
2019-01-11T22:21:09.893Z,22.30
2019-01-11T22:23:41.690Z,22.30
2019-01-11T22:26:11.582Z,22.30
2019-01-11T22:28:41.408Z,22.20
2019-01-11T22:31:11.254Z,22.30
2019-01-11T22:33:41.079Z,22.20
2019-01-11T22:36:10.695Z,22.30
2019-01-11T22:38:40.517Z,22.30
2019-01-11T22:41:10.363Z,22.20
2019-01-11T22:43:40.191Z,22.30
2019-01-11T22:46:10.112Z,22.30
2019-01-11T22:48:40.944Z,22.30
2019-01-11T22:51:10.920Z,22.30
2019-01-11T22:53:40.630Z,22.30
2019-01-11T22:56:10.459Z,22.30
2019-01-11T22:58:40.405Z,22.30
2019-01-11T23:02:05.502Z,22.30
2019-01-11T23:04:35.524Z,22.30
2019-01-11T23:07:29.138Z,22.30
2019-01-11T23:10:46.368Z,22.30
2019-01-11T23:13:17.164Z,22.20
2019-01-11T23:15:50.763Z,22.20
2019-01-11T23:18:22.658Z,22.20
2019-01-11T23:20:54.834Z,22.20
2019-01-11T23:23:24.681Z,22.20
2019-01-11T23:25:54.406Z,22.20
2019-01-11T23:28:25.243Z,22.20
2019-01-11T23:30:54.974Z,22.20
2019-01-11T23:33:26.031Z,22.20
2019-01-11T23:35:55.740Z,22.20
2019-01-11T23:38:25.523Z,22.20
2019-01-11T23:40:55.006Z,22.20
2019-01-11T23:43:24.946Z,22.20
2019-01-11T23:45:54.752Z,22.20
2019-01-11T23:48:24.583Z,22.20
2019-01-11T23:50:55.135Z,22.20
2019-01-11T23:53:24.974Z,22.20
2019-01-11T23:55:54.792Z,22.20
2019-01-11T23:58:24.545Z,22.20
